createdAt,value
2019-04-27T00:01:18.332Z,29.10
2019-04-27T00:03:54.013Z,29.63
2019-04-27T00:06:25.614Z,27.70
2019-04-27T00:08:56.716Z,28.47
2019-04-27T00:11:45.549Z,29.53
2019-04-27T00:14:15.010Z,28.47
2019-04-27T00:16:53.593Z,30.97
2019-04-27T00:19:27.393Z,29.07
2019-04-27T00:21:57.571Z,29.37
2019-04-27T00:24:27.024Z,30.50
2019-04-27T00:26:56.592Z,31.20
2019-04-27T00:29:26.134Z,31.17
2019-04-27T00:31:55.886Z,30.23
2019-04-27T00:34:25.376Z,31.13
2019-04-27T00:36:59.311Z,31.67
2019-04-27T00:39:39.396Z,31.87
2019-04-27T00:42:09.053Z,33.27
2019-04-27T00:44:38.550Z,31.87
2019-04-27T00:47:08.140Z,33.70
2019-04-27T00:49:38.631Z,33.90
2019-04-27T00:52:08.228Z,31.97
2019-04-27T00:54:37.785Z,33.43
2019-04-27T00:57:09.062Z,34.50
2019-04-27T00:59:56.053Z,33.63
2019-04-27T01:02:43.656Z,31.50
2019-04-27T01:05:14.866Z,32.70
2019-04-27T01:07:44.381Z,33.43
2019-04-27T01:10:13.956Z,32.10
2019-04-27T01:12:46.476Z,33.03
2019-04-27T01:15:15.891Z,33.60
2019-04-27T01:17:45.329Z,34.13
2019-04-27T01:20:14.896Z,34.70
2019-04-27T01:22:44.424Z,35.37
2019-04-27T01:25:14.011Z,35.23
2019-04-27T01:27:54.642Z,35.00
2019-04-27T01:30:25.844Z,35.33
2019-04-27T01:32:56.278Z,33.80
2019-04-27T01:35:25.971Z,36.00
2019-04-27T01:37:58.984Z,35.43
2019-04-27T01:40:29.524Z,35.83
2019-04-27T01:42:59.162Z,35.07
2019-04-27T01:45:29.109Z,34.87
2019-04-27T01:47:59.588Z,34.17
2019-04-27T01:50:29.165Z,33.77
2019-04-27T01:52:59.240Z,33.77
2019-04-27T01:55:31.418Z,35.63
2019-04-27T01:58:03.772Z,35.37
2019-04-27T02:00:39.575Z,35.43
2019-04-27T02:03:12.438Z,33.60
2019-04-27T02:05:56.134Z,34.47
2019-04-27T02:08:25.627Z,35.23
2019-04-27T02:10:55.072Z,33.87
2019-04-27T02:13:24.566Z,33.57
2019-04-27T02:15:54.146Z,35.83
2019-04-27T02:18:34.624Z,34.27
2019-04-27T02:20:55.449Z,34.07
2019-04-27T02:23:24.894Z,34.30
2019-04-27T02:25:54.498Z,32.90
2019-04-27T02:28:29.425Z,33.67
2019-04-27T02:31:09.785Z,34.60
2019-04-27T02:33:50.000Z,34.53
2019-04-27T02:36:22.327Z,34.53
2019-04-27T02:38:51.827Z,33.70
2019-04-27T02:41:21.367Z,32.53
2019-04-27T02:44:01.798Z,33.00
2019-04-27T02:46:31.753Z,33.83
2019-04-27T02:49:06.427Z,33.10
2019-04-27T02:51:34.013Z,32.57
2019-04-27T02:54:03.451Z,32.33
2019-04-27T02:56:32.894Z,30.90
2019-04-27T02:59:02.316Z,31.70
2019-04-27T03:01:33.394Z,32.47
2019-04-27T03:04:02.827Z,31.80
2019-04-27T03:06:32.344Z,31.97
2019-04-27T03:09:01.875Z,32.57
2019-04-27T03:11:33.078Z,32.83
2019-04-27T03:14:10.297Z,32.70
2019-04-27T03:16:52.042Z,32.17
2019-04-27T03:19:39.810Z,31.70
2019-04-27T03:22:23.701Z,31.47
2019-04-27T03:25:01.067Z,32.77
2019-04-27T03:27:40.507Z,31.57
2019-04-27T03:30:12.578Z,31.93
2019-04-27T03:32:43.303Z,30.17
2019-04-27T03:35:14.130Z,30.87
2019-04-27T03:37:44.452Z,28.83
2019-04-27T03:40:14.242Z,30.33
2019-04-27T03:42:45.486Z,29.70
2019-04-27T03:45:15.043Z,31.57
2019-04-27T03:47:45.134Z,31.67
2019-04-27T03:50:16.538Z,31.10
2019-04-27T03:52:59.932Z,33.03
2019-04-27T03:55:43.671Z,32.23
2019-04-27T03:58:21.410Z,31.50
2019-04-27T04:00:51.972Z,30.23
2019-04-27T04:03:20.722Z,30.23
2019-04-27T04:05:52.324Z,31.23
2019-04-27T04:08:21.652Z,30.27
2019-04-27T04:10:52.803Z,31.77
2019-04-27T04:13:29.909Z,30.13
2019-04-27T04:16:00.979Z,29.40
2019-04-27T04:18:32.053Z,30.13
2019-04-27T04:21:03.157Z,30.23
2019-04-27T04:23:32.596Z,31.07
2019-04-27T04:26:02.037Z,29.80
2019-04-27T04:28:31.457Z,30.60
2019-04-27T04:31:00.889Z,29.63
2019-04-27T04:33:30.571Z,28.37
2019-04-27T04:36:00.053Z,30.00
2019-04-27T04:38:30.501Z,29.50
2019-04-27T04:41:10.853Z,29.17
2019-04-27T04:43:59.849Z,29.13
2019-04-27T04:46:30.138Z,29.13
2019-04-27T04:49:00.348Z,30.73
2019-04-27T04:51:30.496Z,30.63
2019-04-27T04:54:00.195Z,28.47
2019-04-27T04:56:29.678Z,28.67
2019-04-27T04:59:00.047Z,29.47
2019-04-27T05:01:30.784Z,30.13
2019-04-27T05:04:02.322Z,28.87
2019-04-27T05:06:33.465Z,28.23
2019-04-27T05:09:03.212Z,28.00
2019-04-27T05:11:34.449Z,28.63
2019-04-27T05:14:03.944Z,28.33
2019-04-27T05:16:33.375Z,28.00
2019-04-27T05:19:02.823Z,27.77
2019-04-27T05:21:35.734Z,28.07
2019-04-27T05:24:09.406Z,26.23
2019-04-27T05:26:39.764Z,26.33
2019-04-27T05:29:10.373Z,26.43
2019-04-27T05:31:40.277Z,25.73
2019-04-27T05:34:09.813Z,26.47
2019-04-27T05:36:43.533Z,26.03
2019-04-27T05:39:13.140Z,26.00
2019-04-27T05:41:41.850Z,26.70
2019-04-27T05:44:18.299Z,25.80
2019-04-27T05:46:49.313Z,26.37
2019-04-27T05:49:41.208Z,25.43
2019-04-27T05:52:29.753Z,26.93
2019-04-27T05:54:59.650Z,26.37
2019-04-27T05:57:31.518Z,24.33
2019-04-27T06:00:02.178Z,25.07
2019-04-27T06:02:33.429Z,24.73
2019-04-27T06:05:02.932Z,25.03
2019-04-27T06:07:32.382Z,24.80
2019-04-27T06:10:01.801Z,25.33
2019-04-27T06:12:31.318Z,24.73
2019-04-27T06:15:02.272Z,25.50
2019-04-27T06:17:31.733Z,23.40
2019-04-27T06:20:01.152Z,24.07
2019-04-27T06:22:31.685Z,22.53
2019-04-27T06:25:01.117Z,23.60
2019-04-27T06:27:31.076Z,23.67
2019-04-27T06:30:00.565Z,22.77
2019-04-27T06:32:30.241Z,23.83
2019-04-27T06:34:59.798Z,23.30
2019-04-27T06:37:29.637Z,22.83
2019-04-27T06:40:00.312Z,22.83
2019-04-27T06:42:29.986Z,22.47
2019-04-27T06:45:00.090Z,22.63
2019-04-27T06:47:32.732Z,21.13
2019-04-27T06:50:02.183Z,21.33
2019-04-27T06:52:31.614Z,21.07
2019-04-27T06:55:01.180Z,20.70
2019-04-27T06:57:31.711Z,20.03
2019-04-27T07:00:01.161Z,20.17
2019-04-27T07:02:32.073Z,20.43
2019-04-27T07:05:01.606Z,18.87
2019-04-27T07:07:32.571Z,18.27
2019-04-27T07:10:02.397Z,19.60
2019-04-27T07:12:31.888Z,17.20
2019-04-27T07:15:01.410Z,17.53
2019-04-27T07:17:30.911Z,16.47
2019-04-27T07:20:00.371Z,15.13
2019-04-27T07:22:31.656Z,15.50
2019-04-27T07:25:01.115Z,15.57
2019-04-27T07:27:30.648Z,15.20
2019-04-27T07:30:01.729Z,14.30
2019-04-27T07:32:31.453Z,14.23
2019-04-27T07:35:00.873Z,13.87
2019-04-27T07:37:30.622Z,14.27
2019-04-27T07:40:00.075Z,13.80
2019-04-27T07:42:32.185Z,13.43
2019-04-27T07:45:19.409Z,12.70
2019-04-27T07:47:50.670Z,12.70
2019-04-27T07:50:20.139Z,12.37
2019-04-27T07:52:49.587Z,12.53
2019-04-27T07:55:19.122Z,12.17
2019-04-27T07:57:49.444Z,12.07
2019-04-27T08:00:20.598Z,11.70
2019-04-27T08:02:50.125Z,11.83
2019-04-27T08:05:19.544Z,11.63
2019-04-27T08:07:49.260Z,10.53
2019-04-27T08:10:19.459Z,11.13
2019-04-27T08:12:49.814Z,10.43
2019-04-27T08:15:19.484Z,10.27
2019-04-27T08:17:49.363Z,8.57
2019-04-27T08:20:21.147Z,8.67
2019-04-27T08:22:50.111Z,9.70
2019-04-27T08:25:20.114Z,9.23
2019-04-27T08:27:53.940Z,8.63
2019-04-27T08:30:36.856Z,8.17
2019-04-27T08:33:09.247Z,7.40
2019-04-27T08:35:38.944Z,7.23
2019-04-27T08:38:09.797Z,7.23
2019-04-27T08:40:39.443Z,6.37
2019-04-27T08:43:09.323Z,6.57
2019-04-27T08:45:41.965Z,6.33
2019-04-27T08:48:11.405Z,6.10
2019-04-27T08:50:42.227Z,6.60
2019-04-27T08:53:11.800Z,5.90
2019-04-27T08:55:41.214Z,5.70
2019-04-27T08:58:10.652Z,5.10
2019-04-27T09:00:40.140Z,4.60
2019-04-27T09:03:09.729Z,3.37
2019-04-27T09:05:39.211Z,3.20
2019-04-27T09:08:22.405Z,4.00
2019-04-27T09:10:53.545Z,4.87
2019-04-27T09:13:33.705Z,5.10
2019-04-27T09:16:20.948Z,3.47
2019-04-27T09:18:52.126Z,3.50
2019-04-27T09:21:21.553Z,3.50
2019-04-27T09:23:51.077Z,3.17
2019-04-27T09:26:20.536Z,3.80
2019-04-27T09:28:49.967Z,3.93
2019-04-27T09:31:19.678Z,3.93
2019-04-27T09:33:49.175Z,4.07
2019-04-27T09:36:18.612Z,4.17
2019-04-27T09:38:48.102Z,4.67
2019-04-27T09:41:17.553Z,3.57
2019-04-27T09:43:46.961Z,3.80
2019-04-27T09:46:16.482Z,3.17
2019-04-27T09:48:46.620Z,3.85
2019-04-27T09:51:16.343Z,4.30
2019-04-27T09:53:45.958Z,4.28
2019-04-27T09:56:16.475Z,5.08
2019-04-27T09:58:47.105Z,5.20
2019-04-27T10:01:18.163Z,5.90
2019-04-27T10:03:48.957Z,6.57
2019-04-27T10:06:18.442Z,4.70
2019-04-27T10:08:47.958Z,4.30
2019-04-27T10:11:17.445Z,4.43
2019-04-27T10:13:46.959Z,4.60
2019-04-27T10:16:16.545Z,4.25
2019-04-27T10:18:47.911Z,3.37
2019-04-27T10:21:17.410Z,3.80
2019-04-27T10:23:48.361Z,3.52
2019-04-27T10:26:17.791Z,4.25
2019-04-27T10:28:48.880Z,3.45
2019-04-27T10:31:20.108Z,3.20
2019-04-27T10:33:51.086Z,1.57
2019-04-27T10:36:23.233Z,1.50
2019-04-27T10:38:52.658Z,2.20
2019-04-27T10:41:22.112Z,2.30
2019-04-27T10:43:51.551Z,2.50
2019-04-27T10:46:21.015Z,2.75
2019-04-27T10:48:50.436Z,2.72
2019-04-27T10:51:19.961Z,2.45
2019-04-27T10:53:49.379Z,2.47
2019-04-27T10:56:18.884Z,2.60
2019-04-27T10:58:49.381Z,2.10
2019-04-27T11:01:19.206Z,1.90
2019-04-27T11:03:51.892Z,2.42
2019-04-27T11:06:38.125Z,2.83
2019-04-27T11:09:13.361Z,2.52
2019-04-27T11:11:42.934Z,2.10
2019-04-27T11:14:12.487Z,3.27
2019-04-27T11:16:41.996Z,2.50
2019-04-27T11:19:11.483Z,1.70
2019-04-27T11:21:40.925Z,1.60
2019-04-27T11:24:10.923Z,1.20
2019-04-27T11:26:40.369Z,1.47
2019-04-27T11:29:09.894Z,1.27
2019-04-27T11:31:40.481Z,1.42
2019-04-27T11:34:10.088Z,1.10
2019-04-27T11:36:41.360Z,1.05
2019-04-27T11:39:13.861Z,1.07
2019-04-27T11:41:43.797Z,1.00
2019-04-27T11:44:13.223Z,1.22
2019-04-27T11:46:42.779Z,1.30
2019-04-27T11:49:15.674Z,1.53
2019-04-27T11:51:46.624Z,2.08
2019-04-27T11:54:16.287Z,1.52
2019-04-27T11:56:47.188Z,1.50
2019-04-27T11:59:16.806Z,1.35
2019-04-27T12:01:47.981Z,1.40
2019-04-27T12:04:18.920Z,1.10
2019-04-27T12:06:48.347Z,1.60
2019-04-27T12:09:17.862Z,1.15
2019-04-27T12:11:49.175Z,1.82
2019-04-27T12:14:20.350Z,2.30
2019-04-27T12:16:50.931Z,2.25
2019-04-27T12:19:26.707Z,2.33
2019-04-27T12:21:56.608Z,4.58
2019-04-27T12:24:26.736Z,2.20
2019-04-27T12:26:59.659Z,2.02
2019-04-27T12:29:47.349Z,2.52
2019-04-27T12:32:18.845Z,2.50
2019-04-27T12:34:48.370Z,1.70
2019-04-27T12:37:19.679Z,1.70
2019-04-27T12:39:50.810Z,2.00
2019-04-27T12:42:21.119Z,1.70
2019-04-27T12:44:51.975Z,2.17
2019-04-27T12:47:21.732Z,2.58
2019-04-27T12:49:51.261Z,2.58
2019-04-27T12:52:22.292Z,3.00
2019-04-27T12:55:05.993Z,3.20
2019-04-27T12:57:37.205Z,3.07
2019-04-27T13:00:09.525Z,2.87
2019-04-27T13:02:39.542Z,3.13
2019-04-27T13:05:09.202Z,2.63
2019-04-27T13:07:38.656Z,2.97
2019-04-27T13:10:08.336Z,3.20
2019-04-27T13:12:37.817Z,3.33
2019-04-27T13:15:11.103Z,3.33
2019-04-27T13:17:40.649Z,3.90
2019-04-27T13:20:10.627Z,4.03
2019-04-27T13:22:40.216Z,3.90
2019-04-27T13:25:11.794Z,4.10
2019-04-27T13:27:43.949Z,3.70
2019-04-27T13:30:13.665Z,3.67
2019-04-27T13:32:43.500Z,3.90
2019-04-27T13:35:13.344Z,3.80
2019-04-27T13:37:43.903Z,3.37
2019-04-27T13:40:17.036Z,2.93
2019-04-27T13:42:57.280Z,2.37
2019-04-27T13:45:40.010Z,2.60
2019-04-27T13:48:11.140Z,1.90
2019-04-27T13:50:42.291Z,1.10
2019-04-27T13:53:11.815Z,0.87
2019-04-27T13:55:41.312Z,0.80
2019-04-27T13:58:12.191Z,1.30
2019-04-27T14:00:41.955Z,2.90
2019-04-27T14:03:14.656Z,2.20
2019-04-27T14:05:44.282Z,2.47
2019-04-27T14:08:13.717Z,1.37
2019-04-27T14:10:43.278Z,3.40
2019-04-27T14:13:12.724Z,4.30
2019-04-27T14:15:42.233Z,3.57
2019-04-27T14:18:11.677Z,4.83
2019-04-27T14:20:41.104Z,4.20
2019-04-27T14:23:12.199Z,3.03
2019-04-27T14:25:42.113Z,2.00
2019-04-27T14:28:11.630Z,7.23
2019-04-27T14:30:41.208Z,3.77
2019-04-27T14:33:10.884Z,4.97
2019-04-27T14:35:42.159Z,3.23
2019-04-27T14:38:11.647Z,3.20
2019-04-27T14:40:45.495Z,1.90
2019-04-27T14:43:15.060Z,2.03
2019-04-27T14:45:44.512Z,1.30
2019-04-27T14:48:18.418Z,1.70
2019-04-27T14:50:48.620Z,1.30
2019-04-27T14:53:18.123Z,1.10
2019-04-27T14:55:49.021Z,1.70
2019-04-27T14:58:19.648Z,1.30
2019-04-27T15:00:49.862Z,1.30
2019-04-27T15:03:19.623Z,1.60
2019-04-27T15:05:49.794Z,2.20
2019-04-27T15:08:20.467Z,1.40
2019-04-27T15:10:49.998Z,1.60
2019-04-27T15:13:19.493Z,1.40
2019-04-27T15:15:48.940Z,2.07
2019-04-27T15:18:19.749Z,1.93
2019-04-27T15:20:51.745Z,1.50
2019-04-27T15:23:21.362Z,1.30
2019-04-27T15:25:53.303Z,1.40
2019-04-27T15:28:24.363Z,1.87
2019-04-27T15:30:59.577Z,1.40
2019-04-27T15:33:53.270Z,1.57
2019-04-27T15:36:29.494Z,1.57
2019-04-27T15:39:07.905Z,2.00
2019-04-27T15:41:39.263Z,2.00
2019-04-27T15:44:09.460Z,1.70
2019-04-27T15:46:39.348Z,1.50
2019-04-27T15:49:11.514Z,1.27
2019-04-27T15:51:40.132Z,1.50
2019-04-27T15:54:10.729Z,2.20
2019-04-27T15:56:41.288Z,2.43
2019-04-27T15:59:10.792Z,3.40
2019-04-27T16:01:40.481Z,3.70
2019-04-27T16:04:11.458Z,3.90
2019-04-27T16:06:42.831Z,3.50
2019-04-27T16:09:24.214Z,2.90
2019-04-27T16:11:57.783Z,2.67
2019-04-27T16:14:21.197Z,2.80
2019-04-27T16:16:52.528Z,0.63
2019-04-27T16:19:21.967Z,0.93
2019-04-27T16:21:54.276Z,1.20
2019-04-27T16:24:22.556Z,1.13
2019-04-27T16:26:55.882Z,1.80
2019-04-27T16:29:29.845Z,2.10
2019-04-27T16:31:54.762Z,1.80
2019-04-27T16:34:24.235Z,2.20
2019-04-27T16:36:53.865Z,2.20
2019-04-27T16:39:23.496Z,2.43
2019-04-27T16:41:53.013Z,2.43
2019-04-27T16:44:22.505Z,2.47
2019-04-27T16:46:52.181Z,2.30
2019-04-27T16:49:23.552Z,2.87
2019-04-27T16:51:53.533Z,2.57
2019-04-27T16:54:23.049Z,2.90
2019-04-27T16:57:01.995Z,2.83
2019-04-27T16:59:42.295Z,3.47
2019-04-27T17:01:55.537Z,5.60
2019-04-27T17:04:25.100Z,3.67
2019-04-27T17:06:54.622Z,2.90
2019-04-27T17:09:24.233Z,2.20
2019-04-27T17:11:53.673Z,3.20
2019-04-27T17:14:35.066Z,2.57
2019-04-27T17:17:15.370Z,3.43
2019-04-27T17:19:49.109Z,3.63
2019-04-27T17:22:18.307Z,3.00
2019-04-27T17:24:49.362Z,3.13
2019-04-27T17:27:22.818Z,3.87
2019-04-27T17:29:57.633Z,3.97
2019-04-27T17:32:25.556Z,2.87
2019-04-27T17:35:02.229Z,2.87
2019-04-27T17:37:32.236Z,2.80
2019-04-27T17:40:00.837Z,2.33
2019-04-27T17:42:30.777Z,2.70
2019-04-27T17:45:00.636Z,2.77
2019-04-27T17:47:31.494Z,2.50
2019-04-27T17:50:00.924Z,3.40
2019-04-27T17:52:30.406Z,3.53
2019-04-27T17:55:00.593Z,2.97
2019-04-27T17:57:31.283Z,2.97
2019-04-27T18:00:03.489Z,4.70
2019-04-27T18:02:38.823Z,4.37
2019-04-27T18:05:09.592Z,3.83
2019-04-27T18:07:41.825Z,2.90
2019-04-27T18:10:13.382Z,2.50
2019-04-27T18:12:44.531Z,2.60
2019-04-27T18:15:15.844Z,2.80
2019-04-27T18:17:51.739Z,2.90
2019-04-27T18:20:23.633Z,3.23
2019-04-27T18:23:01.153Z,2.80
2019-04-27T18:25:35.554Z,3.23
2019-04-27T18:28:08.090Z,3.80
2019-04-27T18:30:42.120Z,5.00
2019-04-27T18:33:11.811Z,7.33
2019-04-27T18:35:41.252Z,7.53
2019-04-27T18:38:11.762Z,6.97
2019-04-27T18:40:41.180Z,5.70
2019-04-27T18:43:12.407Z,3.77
2019-04-27T18:45:45.056Z,4.20
2019-04-27T18:48:14.923Z,3.77
2019-04-27T18:50:53.311Z,4.13
2019-04-27T18:53:28.900Z,4.40
2019-04-27T18:56:04.880Z,5.40
2019-04-27T18:58:29.825Z,5.13
2019-04-27T19:00:59.250Z,6.17
2019-04-27T19:03:31.854Z,6.70
2019-04-27T19:06:02.924Z,6.40
2019-04-27T19:08:32.437Z,7.43
2019-04-27T19:11:04.670Z,6.50
2019-04-27T19:13:33.136Z,6.10
2019-04-27T19:16:02.698Z,7.10
2019-04-27T19:18:32.208Z,10.23
2019-04-27T19:21:01.736Z,11.70
2019-04-27T19:23:31.155Z,6.80
2019-04-27T19:26:11.321Z,7.40
2019-04-27T19:28:48.478Z,7.53
2019-04-27T19:31:19.579Z,7.53
2019-04-27T19:33:50.087Z,6.90
2019-04-27T19:36:19.602Z,7.93
2019-04-27T19:38:49.756Z,7.17
2019-04-27T19:41:19.465Z,7.13
2019-04-27T19:43:49.021Z,7.33
2019-04-27T19:46:20.077Z,6.70
2019-04-27T19:48:50.054Z,6.80
2019-04-27T19:51:19.615Z,6.60
2019-04-27T19:53:49.060Z,7.07
2019-04-27T19:56:20.993Z,7.03
2019-04-27T19:58:52.404Z,7.00
2019-04-27T20:01:23.800Z,7.23
2019-04-27T20:03:54.958Z,7.80
2019-04-27T20:06:24.415Z,7.50
2019-04-27T20:08:55.481Z,7.87
2019-04-27T20:11:25.027Z,7.67
2019-04-27T20:13:54.481Z,8.10
2019-04-27T20:16:23.889Z,7.37
2019-04-27T20:18:53.331Z,7.20
2019-04-27T20:21:22.771Z,7.67
2019-04-27T20:23:52.194Z,7.50
2019-04-27T20:26:21.708Z,7.73
2019-04-27T20:28:51.411Z,7.23
2019-04-27T20:31:20.954Z,7.00
2019-04-27T20:33:50.390Z,7.33
2019-04-27T20:36:21.372Z,7.10
2019-04-27T20:38:51.022Z,7.93
2019-04-27T20:41:21.841Z,7.50
2019-04-27T20:43:51.560Z,8.00
2019-04-27T20:46:22.728Z,7.37
2019-04-27T20:48:53.453Z,7.10
2019-04-27T20:51:24.499Z,7.43
2019-04-27T20:53:55.590Z,7.00
2019-04-27T20:56:25.012Z,5.70
2019-04-27T20:58:54.455Z,6.60
2019-04-27T21:01:23.873Z,7.43
2019-04-27T21:03:54.954Z,7.67
2019-04-27T21:06:26.141Z,8.20
2019-04-27T21:08:55.599Z,7.47
2019-04-27T21:11:26.646Z,7.70
2019-04-27T21:13:57.027Z,8.17
2019-04-27T21:16:26.659Z,7.07
2019-04-27T21:18:56.107Z,8.17
2019-04-27T21:21:25.541Z,10.33
2019-04-27T21:23:54.985Z,10.93
2019-04-27T21:26:24.404Z,7.83
2019-04-27T21:28:53.860Z,7.80
2019-04-27T21:31:23.306Z,7.30
2019-04-27T21:33:52.802Z,7.23
2019-04-27T21:36:22.237Z,8.17
2019-04-27T21:38:52.165Z,7.53
2019-04-27T21:41:22.720Z,7.77
2019-04-27T21:43:52.304Z,8.10
2019-04-27T21:46:24.815Z,7.53
2019-04-27T21:48:54.243Z,9.30
2019-04-27T21:51:23.679Z,9.97
2019-04-27T21:54:00.898Z,10.73
2019-04-27T21:56:31.263Z,9.93
2019-04-27T21:59:01.101Z,11.30
2019-04-27T22:01:32.549Z,11.00
2019-04-27T22:04:05.751Z,10.30
2019-04-27T22:06:35.510Z,9.63
2019-04-27T22:09:08.551Z,9.90
2019-04-27T22:11:40.892Z,8.80
2019-04-27T22:14:11.676Z,9.30
2019-04-27T22:16:42.558Z,9.20
2019-04-27T22:19:12.192Z,9.80
2019-04-27T22:21:42.063Z,9.13
2019-04-27T22:24:13.235Z,9.67
2019-04-27T22:26:42.792Z,8.53
2019-04-27T22:29:12.238Z,9.00
2019-04-27T22:31:43.358Z,8.60
2019-04-27T22:34:13.889Z,8.67
2019-04-27T22:36:43.365Z,8.60
2019-04-27T22:39:14.573Z,8.37
2019-04-27T22:41:45.712Z,8.60
2019-04-27T22:44:21.499Z,8.10
2019-04-27T22:46:52.572Z,8.93
2019-04-27T22:49:22.019Z,8.33
2019-04-27T22:51:51.501Z,8.20
2019-04-27T22:54:21.779Z,8.10
2019-04-27T22:56:55.898Z,8.10
2019-04-27T22:59:32.944Z,9.70
2019-04-27T23:02:11.314Z,8.87
2019-04-27T23:04:45.588Z,8.10
2019-04-27T23:07:15.173Z,8.57
2019-04-27T23:09:44.677Z,9.13
2019-04-27T23:12:14.174Z,8.30
2019-04-27T23:14:43.745Z,9.00
2019-04-27T23:17:31.745Z,9.10
2019-04-27T23:20:01.563Z,9.23
2019-04-27T23:22:31.706Z,8.37
2019-04-27T23:25:01.185Z,8.87
2019-04-27T23:27:31.840Z,9.37
2019-04-27T23:30:01.646Z,9.63
2019-04-27T23:32:45.199Z,9.47
2019-04-27T23:35:14.774Z,9.00
2019-04-27T23:37:44.278Z,8.77
2019-04-27T23:40:14.827Z,9.13
2019-04-27T23:42:44.397Z,9.10
2019-04-27T23:45:14.451Z,8.47
2019-04-27T23:47:43.908Z,9.57
2019-04-27T23:50:15.170Z,9.10
2019-04-27T23:52:52.604Z,9.20
2019-04-27T23:55:23.810Z,8.63
2019-04-27T23:57:54.110Z,9.10
